Time;durP1;ratioP1;P1;durP2;ratioP2;P2;SDS_P1;SDS_P2;PMS_P1;PMS_P2;Temp;Humidity;BMP_temperature;BMP_pressure;BME280_temperature;BME280_humidity;BME280_pressure;Samples;Min_cycle;Max_cycle;Signal;HPM_P1;HPM_P2
2021/10/20 00:00:58;;;;;;;2.90;2.50;;;15.50;44.80;;;;;;10312762;28;20239;-77
2021/10/20 00:06:02;;;;;;;3.33;2.50;;;15.40;44.60;;;;;;10322099;28;20258;-78
2021/10/20 00:11:06;;;;;;;3.17;2.30;;;15.30;44.60;;;;;;10314261;28;20600;-77
2021/10/20 00:16:09;;;;;;;2.20;2.10;;;15.30;44.60;;;;;;10319710;28;20234;-77
2021/10/20 00:21:13;;;;;;;2.50;2.30;;;15.20;44.50;;;;;;10325211;28;20648;-77
2021/10/20 00:26:17;;;;;;;2.20;2.03;;;15.20;44.10;;;;;;10318525;28;20314;-78
2021/10/20 00:31:21;;;;;;;2.40;2.17;;;15.10;43.90;;;;;;10322997;28;20231;-77
2021/10/20 00:36:24;;;;;;;2.27;2.10;;;15.10;44.00;;;;;;10320473;28;20323;-77
2021/10/20 00:41:31;;;;;;;2.60;2.40;;;14.90;44.00;;;;;;10320986;28;20231;-77
2021/10/20 00:46:34;;;;;;;2.50;2.30;;;14.90;43.40;;;;;;10318646;28;20235;-78
2021/10/20 00:51:38;;;;;;;2.40;2.20;;;14.80;43.60;;;;;;10324711;28;20237;-77
2021/10/20 00:56:43;;;;;;;2.77;2.47;;;14.70;43.60;;;;;;10313055;28;20240;-78
2021/10/20 01:01:46;;;;;;;2.23;2.10;;;14.60;43.60;;;;;;10321071;28;20611;-77
2021/10/20 01:06:51;;;;;;;2.97;2.63;;;14.50;43.90;;;;;;10325286;28;20250;-77
2021/10/20 01:11:55;;;;;;;2.90;2.50;;;14.50;43.90;;;;;;10317154;28;20795;-78
2021/10/20 01:17:00;;;;;;;2.13;2.03;;;14.40;43.80;;;;;;10315603;28;20239;-77
2021/10/20 01:22:05;;;;;;;2.10;2.00;;;14.40;43.80;;;;;;10310937;28;20254;-77
2021/10/20 01:27:08;;;;;;;3.53;3.30;;;14.30;43.70;;;;;;10313419;28;20241;-77
2021/10/20 01:32:12;;;;;;;4.43;3.63;;;14.30;43.70;;;;;;10315823;28;20231;-78
2021/10/20 01:37:17;;;;;;;3.10;2.90;;;14.20;43.60;;;;;;10309840;28;20231;-78
2021/10/20 01:42:20;;;;;;;2.67;2.47;;;14.10;43.60;;;;;;10312921;28;20241;-77
2021/10/20 01:47:23;;;;;;;2.60;2.40;;;14.00;43.40;;;;;;10319195;28;20254;-78
2021/10/20 01:52:28;;;;;;;2.80;2.60;;;14.00;43.40;;;;;;10317302;28;20756;-77
2021/10/20 01:57:31;;;;;;;2.70;2.50;;;14.00;43.40;;;;;;10319147;28;20227;-77
2021/10/20 02:02:34;;;;;;;2.63;2.43;;;13.90;43.40;;;;;;10328149;28;20235;-77
2021/10/20 02:07:39;;;;;;;2.53;2.33;;;13.90;43.40;;;;;;10317788;28;20293;-77
2021/10/20 02:12:43;;;;;;;2.90;2.70;;;13.80;43.30;;;;;;10319365;28;20234;-77
2021/10/20 02:17:47;;;;;;;2.70;2.30;;;13.70;43.20;;;;;;10318957;28;20246;-77
2021/10/20 02:22:51;;;;;;;2.20;2.10;;;13.70;43.20;;;;;;10316616;28;20253;-77
2021/10/20 02:27:54;;;;;;;2.83;2.63;;;13.60;43.10;;;;;;10313155;28;20231;-77
2021/10/20 02:32:57;;;;;;;2.23;2.10;;;13.60;43.10;;;;;;10321594;28;20228;-77
2021/10/20 02:38:02;;;;;;;2.60;2.40;;;13.60;43.10;;;;;;10316179;28;20241;-77
2021/10/20 02:43:05;;;;;;;2.53;2.30;;;13.50;43.00;;;;;;10321700;28;20262;-77
2021/10/20 02:48:09;;;;;;;2.47;2.27;;;13.50;43.00;;;;;;10311240;28;20227;-77
2021/10/20 02:53:13;;;;;;;2.10;1.97;;;13.40;42.90;;;;;;10317182;28;20243;-77
2021/10/20 02:58:16;;;;;;;2.37;2.17;;;13.30;42.80;;;;;;10310691;28;20226;-77
2021/10/20 03:03:19;;;;;;;2.40;2.03;;;13.30;42.80;;;;;;10324831;28;20817;-77
2021/10/20 03:08:24;;;;;;;1.97;1.80;;;13.20;42.70;;;;;;10319728;28;20261;-77
2021/10/20 03:13:27;;;;;;;1.90;1.80;;;13.20;42.70;;;;;;10320518;28;20226;-77
2021/10/20 03:18:31;;;;;;;1.83;1.73;;;13.10;42.70;;;;;;10320485;28;20241;-77
2021/10/20 03:23:36;;;;;;;1.80;1.70;;;13.10;42.70;;;;;;10316757;28;20227;-77
2021/10/20 03:28:39;;;;;;;1.97;1.87;;;13.00;42.60;;;;;;10313622;28;20239;-77
2021/10/20 03:33:42;;;;;;;2.13;2.03;;;12.90;42.50;;;;;;10314739;28;20241;-77
2021/10/20 03:38:47;;;;;;;2.07;1.87;;;12.80;42.70;;;;;;10313974;28;20733;-77
2021/10/20 03:43:50;;;;;;;2.50;2.30;;;12.80;42.90;;;;;;10311417;28;20223;-78
2021/10/20 03:48:53;;;;;;;1.87;1.77;;;12.70;42.90;;;;;;10316148;28;20233;-77
2021/10/20 03:53:57;;;;;;;2.30;2.13;;;12.70;42.80;;;;;;10312814;28;20229;-77
2021/10/20 03:59:00;;;;;;;2.10;2.00;;;12.60;42.70;;;;;;10310558;28;20253;-78
2021/10/20 04:04:04;;;;;;;2.13;2.00;;;12.60;42.70;;;;;;10317477;28;20234;-77
2021/10/20 04:09:09;;;;;;;2.10;2.00;;;12.50;42.40;;;;;;10311333;28;20302;-77
2021/10/20 04:14:12;;;;;;;1.97;1.87;;;12.40;42.30;;;;;;10309947;28;20610;-77
2021/10/20 04:19:15;;;;;;;2.20;2.10;;;12.40;42.50;;;;;;10308944;28;20231;-77
2021/10/20 04:24:20;;;;;;;1.90;1.80;;;12.30;42.70;;;;;;10308610;28;20242;-77
2021/10/20 04:29:23;;;;;;;2.30;2.10;;;12.30;42.60;;;;;;10302662;28;20235;-77
2021/10/20 04:34:26;;;;;;;2.10;2.00;;;12.20;42.50;;;;;;10313348;28;20238;-77
2021/10/20 04:39:31;;;;;;;2.10;2.00;;;12.20;42.50;;;;;;10321331;28;20235;-77
2021/10/20 04:44:34;;;;;;;2.23;2.03;;;12.10;42.60;;;;;;10307557;28;20614;-77
2021/10/20 04:49:37;;;;;;;2.40;2.20;;;12.10;42.80;;;;;;10312700;28;20240;-77
2021/10/20 04:54:42;;;;;;;3.23;3.00;;;12.00;42.80;;;;;;10314087;28;20247;-77
2021/10/20 04:59:45;;;;;;;5.83;5.23;;;12.00;42.80;;;;;;10307035;28;20242;-77
2021/10/20 05:04:48;;;;;;;5.40;5.00;;;11.90;42.60;;;;;;10312686;28;20231;-77
2021/10/20 05:09:53;;;;;;;4.77;4.40;;;11.80;42.70;;;;;;10320717;28;20227;-77
2021/10/20 05:14:56;;;;;;;4.70;4.33;;;11.70;42.80;;;;;;10315733;28;20224;-77
2021/10/20 05:19:59;;;;;;;4.17;3.73;;;11.70;43.90;;;;;;10317193;28;20717;-78
2021/10/20 05:25:05;;;;;;;3.50;2.90;;;11.60;43.10;;;;;;10311369;28;20234;-77
2021/10/20 05:30:09;;;;;;;2.40;2.20;;;11.60;43.20;;;;;;10312332;28;20235;-77
2021/10/20 05:35:18;;;;;;;2.70;2.50;;;11.50;43.40;;;;;;10320221;28;20650;-78
2021/10/20 05:40:25;;;;;;;4.47;3.50;;;11.50;43.50;;;;;;10309872;28;20237;-77
2021/10/20 05:45:28;;;;;;;5.03;4.63;;;11.50;43.70;;;;;;10313050;28;20696;-77
2021/10/20 05:50:31;;;;;;;4.07;3.77;;;11.50;43.70;;;;;;10330364;28;20231;-77
2021/10/20 05:55:37;;;;;;;4.53;3.80;;;11.50;43.70;;;;;;10316258;28;20608;-78
2021/10/20 06:00:41;;;;;;;4.57;3.90;;;11.50;43.50;;;;;;10309094;28;20243;-77
2021/10/20 06:05:44;;;;;;;3.73;3.43;;;11.50;44.30;;;;;;10316188;28;20239;-78
2021/10/20 06:10:49;;;;;;;4.67;3.30;;;11.50;43.70;;;;;;10318750;28;20246;-77
2021/10/20 06:15:52;;;;;;;4.00;3.70;;;11.40;43.70;;;;;;10321360;28;20257;-77
2021/10/20 06:20:57;;;;;;;4.20;3.90;;;11.40;43.70;;;;;;10308582;28;20263;-78
2021/10/20 06:26:01;;;;;;;3.93;3.60;;;11.40;43.80;;;;;;10317468;28;20230;-78
2021/10/20 06:31:05;;;;;;;5.30;4.80;;;11.40;44.00;;;;;;10311227;28;20219;-78
2021/10/20 06:36:18;;;;;;;6.07;4.50;;;11.40;44.00;;;;;;10313559;28;20242;-77
2021/10/20 06:41:23;;;;;;;5.90;4.40;;;11.40;44.20;;;;;;10317509;28;20239;-78
2021/10/20 06:46:26;;;;;;;3.90;3.60;;;11.40;44.50;;;;;;10315892;28;20757;-78
2021/10/20 06:51:29;;;;;;;3.60;3.23;;;11.50;44.70;;;;;;10311419;28;20231;-78
2021/10/20 06:56:34;;;;;;;4.30;3.43;;;11.50;44.90;;;;;;10314810;28;20782;-79
2021/10/20 07:01:37;;;;;;;6.93;4.23;;;11.60;45.40;;;;;;10312732;28;20658;-78
2021/10/20 07:06:41;;;;;;;6.10;3.67;;;11.70;45.30;;;;;;10308390;28;20238;-76
2021/10/20 07:11:45;;;;;;;4.53;3.60;;;11.70;45.50;;;;;;10311982;28;20247;-76
2021/10/20 07:16:48;;;;;;;4.10;3.80;;;11.80;46.20;;;;;;10308327;28;20226;-76
2021/10/20 07:21:52;;;;;;;4.80;3.73;;;11.90;46.30;;;;;;10309774;28;20231;-77
2021/10/20 07:26:56;;;;;;;3.53;3.23;;;12.00;46.50;;;;;;10307883;28;20939;-77
2021/10/20 07:32:00;;;;;;;3.70;3.40;;;12.10;47.30;;;;;;10305178;28;20723;-77
2021/10/20 07:37:03;;;;;;;4.97;3.30;;;12.30;47.60;;;;;;10307897;28;20234;-77
2021/10/20 07:42:08;;;;;;;3.17;2.87;;;12.40;48.00;;;;;;10307832;28;20226;-77
2021/10/20 07:47:11;;;;;;;3.73;2.93;;;12.70;49.00;;;;;;10301897;28;20299;-76
2021/10/20 07:52:14;;;;;;;3.47;3.17;;;13.00;48.80;;;;;;10304048;28;20229;-76
2021/10/20 07:57:19;;;;;;;3.90;3.13;;;13.20;49.00;;;;;;10300487;28;20234;-76
2021/10/20 08:02:22;;;;;;;5.50;3.20;;;13.50;49.60;;;;;;10307362;28;20242;-76
2021/10/20 08:07:25;;;;;;;4.57;3.10;;;13.80;49.60;;;;;;10309807;28;20242;-76
2021/10/20 08:12:30;;;;;;;3.57;2.50;;;14.20;50.00;;;;;;10309827;28;20239;-75
2021/10/20 08:17:33;;;;;;;2.87;2.30;;;14.50;50.10;;;;;;10315480;28;20235;-76
2021/10/20 08:22:36;;;;;;;2.80;2.50;;;14.80;49.80;;;;;;10312466;28;20238;-77
2021/10/20 08:27:41;;;;;;;3.00;2.40;;;15.20;49.60;;;;;;10308015;28;20249;-77
2021/10/20 08:32:46;;;;;;;3.03;2.33;;;15.50;49.40;;;;;;10301567;28;20235;-77
2021/10/20 08:37:55;;;;;;;2.47;1.90;;;15.90;49.30;;;;;;10307990;28;20783;-77
2021/10/20 08:43:00;;;;;;;2.83;2.10;;;16.20;49.00;;;;;;10309799;28;20245;-77
2021/10/20 08:48:04;;;;;;;2.10;1.90;;;16.60;48.30;;;;;;10314634;28;20245;-77
2021/10/20 08:53:08;;;;;;;2.20;2.00;;;16.90;47.80;;;;;;10317193;28;20231;-77
2021/10/20 08:58:12;;;;;;;2.43;2.20;;;17.20;47.70;;;;;;10313979;28;20243;-77
2021/10/20 09:03:16;;;;;;;2.70;2.30;;;17.50;47.00;;;;;;10320525;28;20231;-77
2021/10/20 09:08:19;;;;;;;2.67;2.47;;;17.80;46.80;;;;;;10317578;28;20234;-78
2021/10/20 09:13:25;;;;;;;2.63;2.43;;;18.10;47.10;;;;;;10313987;28;20249;-78
2021/10/20 09:18:35;;;;;;;2.63;2.27;;;18.30;46.00;;;;;;10324654;28;20230;-78
2021/10/20 09:23:38;;;;;;;2.80;2.60;;;18.60;46.30;;;;;;10309622;28;20238;-77
2021/10/20 09:28:43;;;;;;;2.60;2.40;;;18.80;46.10;;;;;;10317132;28;20235;-78
2021/10/20 09:34:07;;;;;;;2.50;2.37;;;19.10;45.50;;;;;;10312646;28;20232;-77
2021/10/20 09:39:11;;;;;;;3.70;2.73;;;19.40;45.20;;;;;;10313708;28;20720;-78
2021/10/20 09:44:15;;;;;;;2.87;2.40;;;19.60;44.20;;;;;;10314603;28;20645;-76
2021/10/20 09:49:20;;;;;;;4.33;2.40;;;19.90;43.20;;;;;;10306340;28;20232;-78
2021/10/20 09:54:25;;;;;;;2.60;2.40;;;20.10;42.20;;;;;;10308814;28;20800;-77
2021/10/20 09:59:34;;;;;;;2.67;2.47;;;20.30;42.50;;;;;;10320712;28;20238;-77
2021/10/20 10:04:38;;;;;;;2.27;2.10;;;20.40;40.90;;;;;;10316050;28;20246;-78
2021/10/20 10:09:41;;;;;;;2.27;2.07;;;20.60;41.90;;;;;;10311485;28;20235;-77
2021/10/20 10:14:50;;;;;;;2.40;2.20;;;20.80;42.40;;;;;;10309011;28;20231;-78
2021/10/20 10:20:10;;;;;;;2.77;2.47;;;21.00;40.60;;;;;;10310969;28;20244;-79
2021/10/20 10:25:13;;;;;;;2.77;2.37;;;21.10;40.10;;;;;;10313585;28;20869;-78
2021/10/20 10:30:19;;;;;;;2.67;2.10;;;21.30;40.50;;;;;;10309724;28;20236;-78
2021/10/20 10:35:30;;;;;;;1.93;1.83;;;21.50;39.20;;;;;;10310663;28;20238;-76
2021/10/20 10:40:34;;;;;;;2.00;1.90;;;21.70;38.70;;;;;;10311860;28;20227;-77
2021/10/20 10:45:38;;;;;;;2.20;2.00;;;21.80;40.50;;;;;;10303918;28;20235;-77
2021/10/20 10:50:45;;;;;;;2.37;2.00;;;22.00;39.40;;;;;;10310256;28;20235;-76
2021/10/20 10:56:03;;;;;;;2.20;2.00;;;22.10;38.40;;;;;;10306659;28;20249;-78
2021/10/20 11:01:08;;;;;;;2.37;2.17;;;22.30;38.50;;;;;;10303856;28;20258;-76
2021/10/20 11:06:19;;;;;;;2.60;2.37;;;22.40;38.60;;;;;;10306440;28;20255;-78
2021/10/20 11:11:24;;;;;;;2.80;2.17;;;22.50;37.00;;;;;;10308646;28;20245;-78
2021/10/20 11:16:29;;;;;;;2.53;2.33;;;22.70;38.90;;;;;;10306584;28;20230;-78
2021/10/20 11:21:33;;;;;;;2.40;2.27;;;22.80;38.40;;;;;;10306240;28;20242;-78
2021/10/20 11:26:37;;;;;;;2.33;2.13;;;22.80;37.50;;;;;;10307140;28;20254;-78
2021/10/20 11:31:52;;;;;;;2.20;2.10;;;22.90;37.60;;;;;;10313386;28;20257;-78
2021/10/20 11:36:55;;;;;;;2.00;1.90;;;22.90;36.30;;;;;;10307273;28;20230;-78
2021/10/20 11:42:01;;;;;;;2.13;1.93;;;23.00;37.50;;;;;;10302304;28;20235;-78
2021/10/20 11:47:08;;;;;;;2.10;1.90;;;23.00;37.00;;;;;;10309791;28;20227;-78
2021/10/20 11:52:13;;;;;;;2.00;1.90;;;23.10;35.70;;;;;;10302898;28;20697;-78
2021/10/20 11:57:18;;;;;;;2.17;2.07;;;23.10;37.10;;;;;;10308709;28;20233;-78
2021/10/20 12:02:30;;;;;;;2.20;2.00;;;23.20;36.50;;;;;;10304087;28;20245;-78
2021/10/20 12:07:34;;;;;;;2.43;2.07;;;23.30;35.50;;;;;;10297343;28;20227;-78
2021/10/20 12:12:37;;;;;;;2.90;2.07;;;23.30;36.50;;;;;;10293652;28;20990;-79
2021/10/20 12:17:44;;;;;;;2.93;2.20;;;23.40;36.40;;;;;;10294134;28;20247;-81
2021/10/20 12:22:49;;;;;;;3.23;2.03;;;23.40;35.40;;;;;;10298446;28;20254;-79
2021/10/20 12:27:52;;;;;;;2.43;2.23;;;23.50;35.30;;;;;;10300875;28;20239;-79
2021/10/20 12:32:57;;;;;;;2.80;2.03;;;23.50;35.40;;;;;;10290945;28;20333;-77
2021/10/20 12:38:04;;;;;;;2.30;2.10;;;23.60;34.40;;;;;;10294830;28;20227;-78
2021/10/20 12:43:08;;;;;;;2.00;1.90;;;23.60;33.30;;;;;;10293532;28;20309;-77
2021/10/20 12:48:13;;;;;;;2.20;2.10;;;23.60;34.70;;;;;;10288779;28;20235;-74
2021/10/20 12:53:16;;;;;;;2.80;2.27;;;23.60;33.80;;;;;;10296555;28;20230;-77
2021/10/20 12:58:28;;;;;;;1.97;1.80;;;23.70;35.00;;;;;;10293735;28;20328;-78
2021/10/20 13:03:34;;;;;;;2.30;2.10;;;23.70;33.20;;;;;;10295752;28;20234;-78
2021/10/20 13:08:38;;;;;;;1.70;1.60;;;23.70;32.80;;;;;;10303188;28;20915;-79
2021/10/20 13:13:41;;;;;;;2.10;1.90;;;23.70;33.90;;;;;;10296486;28;20236;-79
2021/10/20 13:18:46;;;;;;;2.87;2.20;;;23.70;33.60;;;;;;10301954;28;20861;-78
2021/10/20 13:23:49;;;;;;;2.67;1.93;;;23.70;32.90;;;;;;10297557;28;20245;-78
2021/10/20 13:28:52;;;;;;;2.23;2.03;;;23.80;33.80;;;;;;10296294;28;20743;-78
2021/10/20 13:33:57;;;;;;;2.10;2.00;;;23.80;33.70;;;;;;10296688;28;20223;-79
2021/10/20 13:39:01;;;;;;;2.30;2.10;;;23.80;33.10;;;;;;10300070;28;20233;-79
2021/10/20 13:44:05;;;;;;;2.20;2.00;;;23.90;33.60;;;;;;10303855;28;20226;-78
2021/10/20 13:49:10;;;;;;;2.30;2.20;;;23.80;33.10;;;;;;10315304;28;20237;-80
2021/10/20 13:54:13;;;;;;;2.00;1.90;;;23.80;32.30;;;;;;10312930;28;20242;-79
2021/10/20 13:59:17;;;;;;;2.37;1.90;;;23.70;32.80;;;;;;10315961;28;20245;-79
2021/10/20 14:04:22;;;;;;;2.50;2.30;;;23.70;32.80;;;;;;10301955;28;20235;-78
2021/10/20 14:09:27;;;;;;;2.57;2.40;;;23.60;32.20;;;;;;10319036;28;20230;-78
2021/10/20 14:14:30;;;;;;;2.53;2.33;;;23.60;32.40;;;;;;10311666;28;20231;-77
2021/10/20 14:19:47;;;;;;;3.60;2.33;;;23.50;32.70;;;;;;10308663;28;20639;-79
2021/10/20 14:24:51;;;;;;;2.73;2.53;;;23.40;31.90;;;;;;10312598;28;20754;-78
2021/10/20 14:29:54;;;;;;;3.03;2.50;;;23.40;32.70;;;;;;10307805;28;20242;-78
2021/10/20 14:34:59;;;;;;;2.63;2.40;;;23.30;32.20;;;;;;10310871;28;20235;-78
2021/10/20 14:40:03;;;;;;;2.73;2.50;;;23.20;32.20;;;;;;10304928;28;20254;-76
2021/10/20 14:45:08;;;;;;;2.33;2.10;;;23.00;32.50;;;;;;10308654;28;20231;-77
2021/10/20 14:50:12;;;;;;;3.30;3.00;;;22.90;33.00;;;;;;10311127;28;20716;-77
2021/10/20 14:55:16;;;;;;;4.10;2.50;;;22.90;32.80;;;;;;10307558;28;20223;-77
2021/10/20 15:00:19;;;;;;;2.47;2.27;;;22.80;32.90;;;;;;10313797;28;20834;-77
2021/10/20 15:05:25;;;;;;;2.30;2.10;;;22.80;33.00;;;;;;10303740;28;20322;-79
2021/10/20 15:10:28;;;;;;;2.70;2.50;;;22.80;32.50;;;;;;10297873;28;20246;-79
2021/10/20 15:15:32;;;;;;;2.60;2.40;;;22.70;32.90;;;;;;10309995;28;20231;-79
2021/10/20 15:21:02;;;;;;;3.17;2.60;;;22.60;32.80;;;;;;10312439;28;20249;-79
2021/10/20 15:26:05;;;;;;;3.00;2.73;;;22.50;32.50;;;;;;10308843;28;20241;-79
2021/10/20 15:31:11;;;;;;;3.00;2.80;;;22.40;33.60;;;;;;10309372;28;20843;-79
2021/10/20 15:36:17;;;;;;;5.93;3.43;;;22.30;33.10;;;;;;10312013;28;20237;-79
2021/10/20 15:41:22;;;;;;;3.30;2.83;;;22.30;32.70;;;;;;10310018;28;20242;-78
2021/10/20 15:46:25;;;;;;;3.67;2.90;;;22.20;33.10;;;;;;10304453;28;20701;-78
2021/10/20 15:51:30;;;;;;;4.83;3.20;;;22.20;33.30;;;;;;10314223;28;20269;-78
2021/10/20 15:56:33;;;;;;;4.10;3.67;;;22.10;33.10;;;;;;10308374;28;20608;-79
2021/10/20 16:01:36;;;;;;;3.63;3.33;;;22.10;33.30;;;;;;10311781;28;20245;-80
2021/10/20 16:06:41;;;;;;;4.37;3.63;;;22.10;33.30;;;;;;10304683;28;20265;-79
2021/10/20 16:11:44;;;;;;;4.17;3.57;;;21.90;33.10;;;;;;10318173;28;20614;-78
2021/10/20 16:16:48;;;;;;;3.87;3.47;;;21.80;33.40;;;;;;10300332;28;20242;-78
2021/10/20 16:21:52;;;;;;;3.60;3.30;;;21.60;33.30;;;;;;10318469;28;20219;-78
2021/10/20 16:26:55;;;;;;;3.37;2.87;;;21.50;33.70;;;;;;10313287;28;20242;-79
2021/10/20 16:31:59;;;;;;;5.17;4.73;;;21.40;33.60;;;;;;10309165;28;20245;-79
2021/10/20 16:37:05;;;;;;;6.60;4.80;;;21.30;33.80;;;;;;10305234;28;20242;-78
2021/10/20 16:42:08;;;;;;;4.70;3.60;;;21.30;33.80;;;;;;10307888;28;20227;-78
2021/10/20 16:47:12;;;;;;;4.47;3.70;;;21.20;33.70;;;;;;10304367;28;20256;-78
2021/10/20 16:52:16;;;;;;;5.00;4.60;;;21.10;33.90;;;;;;10300387;28;20242;-78
2021/10/20 16:57:19;;;;;;;5.73;5.20;;;21.00;34.10;;;;;;10304152;28;20745;-78
2021/10/20 17:02:23;;;;;;;6.10;5.50;;;20.90;34.10;;;;;;10311872;28;20318;-78
2021/10/20 17:07:29;;;;;;;7.27;6.57;;;20.90;34.20;;;;;;10307169;28;20258;-79
2021/10/20 17:12:32;;;;;;;6.37;5.77;;;20.80;34.10;;;;;;10316643;28;20234;-78
2021/10/20 17:17:35;;;;;;;6.50;5.67;;;20.70;34.20;;;;;;10303357;28;20243;-78
2021/10/20 17:22:41;;;;;;;6.40;5.90;;;20.60;34.10;;;;;;10322417;28;20246;-78
2021/10/20 17:27:44;;;;;;;8.00;7.30;;;20.50;34.20;;;;;;10309463;28;21048;-78
2021/10/20 17:32:48;;;;;;;6.30;5.70;;;20.40;34.30;;;;;;10316301;28;20238;-78
2021/10/20 17:37:55;;;;;;;6.80;6.20;;;20.20;34.40;;;;;;10328643;28;20239;-77
2021/10/20 17:42:58;;;;;;;9.53;7.67;;;20.10;34.50;;;;;;10288961;28;20269;-77
2021/10/20 17:48:04;;;;;;;10.03;9.17;;;20.00;34.70;;;;;;10297783;28;20334;-78
2021/10/20 17:53:10;;;;;;;9.53;8.70;;;19.90;34.60;;;;;;10298656;28;20231;-78
2021/10/20 17:58:13;;;;;;;7.33;6.73;;;19.80;34.60;;;;;;10311900;28;20608;-77
2021/10/20 18:03:16;;;;;;;8.27;6.00;;;19.70;34.90;;;;;;10313056;28;20231;-77
2021/10/20 18:08:21;;;;;;;10.43;7.67;;;19.60;35.10;;;;;;10315707;28;20239;-77
2021/10/20 18:13:26;;;;;;;7.63;6.93;;;19.50;35.20;;;;;;10310844;28;20305;-78
2021/10/20 18:18:32;;;;;;;6.73;6.13;;;19.50;35.40;;;;;;10314643;28;20250;-77
2021/10/20 18:23:38;;;;;;;6.50;6.00;;;19.40;35.30;;;;;;10304745;28;20240;-77
2021/10/20 18:28:41;;;;;;;6.30;5.80;;;19.40;35.70;;;;;;10308465;28;20245;-77
2021/10/20 18:33:46;;;;;;;7.67;6.57;;;19.30;35.30;;;;;;10315817;28;20235;-77
2021/10/20 18:38:50;;;;;;;5.53;5.13;;;19.20;35.40;;;;;;10308491;28;20234;-78
2021/10/20 18:43:53;;;;;;;5.47;4.97;;;19.00;35.70;;;;;;10311053;28;20231;-77
2021/10/20 18:49:01;;;;;;;6.10;5.50;;;19.00;35.60;;;;;;10319069;28;20234;-77
2021/10/20 18:54:06;;;;;;;7.00;6.30;;;18.90;35.60;;;;;;10310787;28;20223;-77
2021/10/20 18:59:09;;;;;;;7.03;6.30;;;18.90;36.30;;;;;;10309331;28;20311;-78
2021/10/20 19:04:12;;;;;;;7.07;5.57;;;18.90;35.50;;;;;;10304072;28;20231;-77
2021/10/20 19:09:17;;;;;;;7.40;5.63;;;18.90;35.50;;;;;;10307438;28;20318;-77
2021/10/20 19:14:26;;;;;;;6.40;4.90;;;18.80;35.50;;;;;;10310823;28;20774;-77
2021/10/20 19:19:29;;;;;;;5.67;5.17;;;18.80;35.50;;;;;;10307958;28;20241;-76
2021/10/20 19:24:34;;;;;;;5.43;5.03;;;18.70;35.40;;;;;;10306525;28;20231;-76
2021/10/20 19:29:37;;;;;;;7.93;7.23;;;18.70;35.80;;;;;;10311216;28;20322;-76
2021/10/20 19:34:41;;;;;;;7.20;6.50;;;18.60;35.50;;;;;;10302165;28;20878;-77
2021/10/20 19:39:45;;;;;;;5.90;5.40;;;18.50;35.40;;;;;;10302564;28;20231;-76
2021/10/20 19:44:48;;;;;;;5.20;4.73;;;18.50;35.80;;;;;;10303215;28;20234;-77
2021/10/20 19:49:52;;;;;;;5.17;4.77;;;18.40;35.70;;;;;;10310850;28;20729;-76
2021/10/20 19:54:56;;;;;;;5.10;4.70;;;18.40;35.80;;;;;;10310820;28;20249;-76
2021/10/20 20:00:00;;;;;;;5.10;4.70;;;18.30;35.80;;;;;;10307966;28;21526;-76
2021/10/20 20:05:03;;;;;;;4.50;4.10;;;18.20;35.80;;;;;;10310486;28;20237;-76
2021/10/20 20:10:09;;;;;;;5.33;4.93;;;18.10;36.00;;;;;;10306410;28;20235;-77
2021/10/20 20:15:13;;;;;;;5.13;4.73;;;18.00;36.40;;;;;;10298944;28;20242;-77
2021/10/20 20:20:17;;;;;;;4.20;3.90;;;17.90;36.30;;;;;;10300740;28;20608;-77
2021/10/20 20:25:22;;;;;;;5.27;4.77;;;17.80;36.40;;;;;;10296312;28;20235;-77
2021/10/20 20:30:25;;;;;;;4.90;4.50;;;17.80;37.30;;;;;;10302809;28;20235;-77
2021/10/20 20:35:29;;;;;;;5.87;4.60;;;17.80;36.30;;;;;;10307218;28;20235;-77
2021/10/20 20:40:33;;;;;;;4.10;3.80;;;17.70;36.40;;;;;;10302828;28;20735;-77
2021/10/20 20:45:37;;;;;;;4.10;3.80;;;17.60;36.80;;;;;;10312799;28;20245;-77
2021/10/20 20:50:41;;;;;;;4.80;4.30;;;17.50;36.80;;;;;;10310854;28;20234;-77
2021/10/20 20:55:45;;;;;;;3.83;3.60;;;17.50;37.00;;;;;;10306551;28;20318;-77
2021/10/20 21:00:49;;;;;;;4.23;3.83;;;17.50;37.20;;;;;;10318205;28;20228;-77
2021/10/20 21:05:52;;;;;;;6.13;5.00;;;17.50;37.00;;;;;;10305819;28;20325;-77
2021/10/20 21:10:57;;;;;;;6.37;5.50;;;17.50;36.90;;;;;;10312665;28;20279;-77
2021/10/20 21:16:01;;;;;;;5.50;5.10;;;17.40;37.10;;;;;;10310876;28;20231;-77
2021/10/20 21:21:08;;;;;;;7.10;5.53;;;17.30;36.90;;;;;;10312366;28;20222;-77
2021/10/20 21:26:13;;;;;;;6.23;5.60;;;17.30;37.00;;;;;;10309364;28;20231;-77
2021/10/20 21:31:16;;;;;;;6.90;6.00;;;17.20;37.30;;;;;;10307829;28;20227;-77
2021/10/20 21:36:19;;;;;;;8.53;7.70;;;17.10;37.20;;;;;;10311200;28;20230;-77
2021/10/20 21:41:23;;;;;;;7.93;7.13;;;17.00;37.30;;;;;;10318091;28;20739;-77
2021/10/20 21:46:27;;;;;;;7.07;6.37;;;17.00;37.60;;;;;;10305651;28;20969;-77
2021/10/20 21:51:30;;;;;;;8.40;7.70;;;17.00;37.50;;;;;;10309974;28;20234;-76
2021/10/20 21:56:35;;;;;;;9.13;8.33;;;16.90;37.50;;;;;;10311683;28;20235;-77
2021/10/20 22:01:38;;;;;;;7.03;6.40;;;16.90;37.80;;;;;;10310819;28;20233;-76
2021/10/20 22:06:41;;;;;;;7.43;6.20;;;16.90;37.60;;;;;;10301660;28;20234;-76
2021/10/20 22:11:46;;;;;;;8.37;6.73;;;16.80;37.60;;;;;;10305835;28;20223;-77
2021/10/20 22:16:49;;;;;;;6.90;6.20;;;16.80;37.90;;;;;;10317896;28;20345;-76
2021/10/20 22:21:52;;;;;;;8.10;6.40;;;16.80;37.60;;;;;;10314410;28;20289;-76
2021/10/20 22:26:57;;;;;;;7.37;5.90;;;16.80;37.60;;;;;;10309823;28;20682;-77
2021/10/20 22:32:01;;;;;;;6.20;5.60;;;16.80;37.90;;;;;;10312475;28;20239;-76
2021/10/20 22:37:05;;;;;;;12.40;9.60;;;16.70;37.60;;;;;;10304624;28;20228;-76
2021/10/20 22:42:11;;;;;;;10.47;8.97;;;16.60;37.60;;;;;;10302255;28;20231;-77
2021/10/20 22:47:14;;;;;;;9.73;7.20;;;16.50;37.90;;;;;;10307775;28;20755;-77
2021/10/20 22:52:19;;;;;;;5.93;5.33;;;16.50;37.80;;;;;;10310216;28;20231;-76
2021/10/20 22:57:23;;;;;;;6.10;5.50;;;16.50;37.90;;;;;;10305044;28;20254;-77
2021/10/20 23:02:26;;;;;;;9.33;7.50;;;16.40;38.10;;;;;;10310183;28;20251;-77
2021/10/20 23:07:30;;;;;;;8.33;7.43;;;16.40;38.00;;;;;;10319065;28;20242;-76
2021/10/20 23:12:35;;;;;;;8.77;7.47;;;16.30;38.10;;;;;;10300702;28;20238;-76
2021/10/20 23:17:38;;;;;;;7.90;7.10;;;16.30;38.60;;;;;;10310937;28;20236;-77
2021/10/20 23:22:41;;;;;;;7.57;6.83;;;16.30;38.40;;;;;;10307798;28;20235;-76
2021/10/20 23:27:46;;;;;;;6.87;6.17;;;16.30;38.50;;;;;;10317705;28;20708;-77
2021/10/20 23:32:49;;;;;;;7.50;6.77;;;16.30;38.70;;;;;;10314250;28;20237;-76
2021/10/20 23:37:52;;;;;;;7.33;6.43;;;16.30;38.60;;;;;;10305507;28;20238;-76
2021/10/20 23:42:57;;;;;;;7.70;6.80;;;16.30;38.50;;;;;;10303450;28;20583;-77
2021/10/20 23:48:00;;;;;;;6.57;5.97;;;16.30;39.10;;;;;;10298703;28;20610;-76
2021/10/20 23:53:04;;;;;;;6.23;5.60;;;16.20;38.70;;;;;;10314090;28;20672;-76
2021/10/20 23:58:08;;;;;;;6.30;5.70;;;16.20;38.80;;;;;;10308433;28;20231;-76
